sensor_id;sensor_type;location;lat;lon;timestamp;P1;durP1;ratioP1;P2;durP2;ratioP2
35506;SDS011;36461;52.018;21.036;2022-08-03T00:01:01;21.27;;;18.05;;
35506;SDS011;36461;52.018;21.036;2022-08-03T00:03:27;19.37;;;17.37;;
35506;SDS011;36461;52.018;21.036;2022-08-03T00:05:54;20.05;;;18.05;;
35506;SDS011;36461;52.018;21.036;2022-08-03T00:08:20;21.70;;;19.40;;
35506;SDS011;36461;52.018;21.036;2022-08-03T00:10:47;20.05;;;17.92;;
35506;SDS011;36461;52.018;21.036;2022-08-03T00:13:13;21.77;;;19.50;;
35506;SDS011;36461;52.018;21.036;2022-08-03T00:15:44;22.22;;;19.82;;
35506;SDS011;36461;52.018;21.036;2022-08-03T00:18:11;22.77;;;20.32;;
35506;SDS011;36461;52.018;21.036;2022-08-03T00:20:37;21.75;;;19.32;;
35506;SDS011;36461;52.018;21.036;2022-08-03T00:23:03;20.17;;;18.20;;
35506;SDS011;36461;52.018;21.036;2022-08-03T00:25:32;20.00;;;17.92;;
35506;SDS011;36461;52.018;21.036;2022-08-03T00:28:00;22.07;;;19.85;;
35506;SDS011;36461;52.018;21.036;2022-08-03T00:30:28;20.02;;;17.90;;
35506;SDS011;36461;52.018;21.036;2022-08-03T00:32:55;20.90;;;18.70;;
35506;SDS011;36461;52.018;21.036;2022-08-03T00:35:23;19.23;;;17.37;;
35506;SDS011;36461;52.018;21.036;2022-08-03T00:37:50;18.32;;;16.40;;
35506;SDS011;36461;52.018;21.036;2022-08-03T00:42:48;21.48;;;15.70;;
35506;SDS011;36461;52.018;21.036;2022-08-03T00:45:19;18.37;;;16.48;;
35506;SDS011;36461;52.018;21.036;2022-08-03T00:47:48;17.87;;;16.02;;
35506;SDS011;36461;52.018;21.036;2022-08-03T00:50:16;18.75;;;16.48;;
35506;SDS011;36461;52.018;21.036;2022-08-03T00:52:44;18.82;;;15.85;;
35506;SDS011;36461;52.018;21.036;2022-08-03T00:55:11;16.70;;;14.45;;
35506;SDS011;36461;52.018;21.036;2022-08-03T00:57:38;15.10;;;13.60;;
35506;SDS011;36461;52.018;21.036;2022-08-03T01:00:08;15.23;;;13.58;;
35506;SDS011;36461;52.018;21.036;2022-08-03T01:02:38;15.05;;;13.32;;
35506;SDS011;36461;52.018;21.036;2022-08-03T01:05:06;17.42;;;14.00;;
35506;SDS011;36461;52.018;21.036;2022-08-03T01:16:18;11.08;;;10.08;;
35506;SDS011;36461;52.018;21.036;2022-08-03T01:19:11;10.88;;;9.85;;
35506;SDS011;36461;52.018;21.036;2022-08-03T01:22:17;11.43;;;10.30;;
35506;SDS011;36461;52.018;21.036;2022-08-03T01:30:42;12.07;;;10.70;;
35506;SDS011;36461;52.018;21.036;2022-08-03T01:33:25;16.00;;;11.08;;
35506;SDS011;36461;52.018;21.036;2022-08-03T01:36:02;12.18;;;10.95;;
35506;SDS011;36461;52.018;21.036;2022-08-03T01:39:05;13.83;;;12.35;;
35506;SDS011;36461;52.018;21.036;2022-08-03T01:41:28;12.60;;;11.50;;
35506;SDS011;36461;52.018;21.036;2022-08-03T01:43:59;12.53;;;11.18;;
35506;SDS011;36461;52.018;21.036;2022-08-03T01:46:29;11.10;;;10.00;;
35506;SDS011;36461;52.018;21.036;2022-08-03T01:48:57;13.10;;;11.03;;
35506;SDS011;36461;52.018;21.036;2022-08-03T01:51:26;12.30;;;11.10;;
35506;SDS011;36461;52.018;21.036;2022-08-03T01:53:54;11.97;;;10.88;;
35506;SDS011;36461;52.018;21.036;2022-08-03T01:56:22;11.20;;;10.20;;
35506;SDS011;36461;52.018;21.036;2022-08-03T01:58:51;11.18;;;10.08;;
35506;SDS011;36461;52.018;21.036;2022-08-03T02:01:19;10.88;;;9.78;;
35506;SDS011;36461;52.018;21.036;2022-08-03T02:03:47;11.78;;;10.40;;
35506;SDS011;36461;52.018;21.036;2022-08-03T02:06:15;11.35;;;10.25;;
35506;SDS011;36461;52.018;21.036;2022-08-03T02:08:43;11.93;;;10.70;;
35506;SDS011;36461;52.018;21.036;2022-08-03T02:11:11;11.75;;;10.75;;
35506;SDS011;36461;52.018;21.036;2022-08-03T02:16:05;11.53;;;10.32;;
35506;SDS011;36461;52.018;21.036;2022-08-03T02:18:33;12.23;;;11.08;;
35506;SDS011;36461;52.018;21.036;2022-08-03T02:21:02;12.10;;;10.72;;
35506;SDS011;36461;52.018;21.036;2022-08-03T02:23:32;11.85;;;10.72;;
35506;SDS011;36461;52.018;21.036;2022-08-03T02:28:37;12.37;;;10.98;;
35506;SDS011;36461;52.018;21.036;2022-08-03T02:31:06;11.28;;;10.28;;
35506;SDS011;36461;52.018;21.036;2022-08-03T02:33:40;12.20;;;11.05;;
35506;SDS011;36461;52.018;21.036;2022-08-03T02:36:10;11.75;;;10.13;;
35506;SDS011;36461;52.018;21.036;2022-08-03T02:38:40;11.60;;;10.40;;
35506;SDS011;36461;52.018;21.036;2022-08-03T02:41:12;10.88;;;9.88;;
35506;SDS011;36461;52.018;21.036;2022-08-03T02:43:40;11.70;;;10.50;;
35506;SDS011;36461;52.018;21.036;2022-08-03T02:46:11;11.48;;;10.28;;
35506;SDS011;36461;52.018;21.036;2022-08-03T02:48:42;11.70;;;9.78;;
35506;SDS011;36461;52.018;21.036;2022-08-03T02:51:11;12.00;;;10.70;;
35506;SDS011;36461;52.018;21.036;2022-08-03T02:53:39;11.75;;;10.63;;
35506;SDS011;36461;52.018;21.036;2022-08-03T02:56:06;12.23;;;11.03;;
35506;SDS011;36461;52.018;21.036;2022-08-03T02:58:34;11.95;;;10.85;;
35506;SDS011;36461;52.018;21.036;2022-08-03T03:01:04;11.28;;;10.08;;
35506;SDS011;36461;52.018;21.036;2022-08-03T03:03:32;11.90;;;10.80;;
35506;SDS011;36461;52.018;21.036;2022-08-03T03:06:01;11.63;;;10.60;;
35506;SDS011;36461;52.018;21.036;2022-08-03T03:08:28;11.40;;;10.32;;
35506;SDS011;36461;52.018;21.036;2022-08-03T03:10:56;11.48;;;10.30;;
35506;SDS011;36461;52.018;21.036;2022-08-03T03:13:29;10.68;;;9.73;;
35506;SDS011;36461;52.018;21.036;2022-08-03T03:15:58;11.48;;;10.32;;
35506;SDS011;36461;52.018;21.036;2022-08-03T03:18:27;11.43;;;10.03;;
35506;SDS011;36461;52.018;21.036;2022-08-03T03:20:54;10.78;;;9.70;;
35506;SDS011;36461;52.018;21.036;2022-08-03T03:23:22;10.82;;;9.60;;
35506;SDS011;36461;52.018;21.036;2022-08-03T03:25:52;10.63;;;9.70;;
35506;SDS011;36461;52.018;21.036;2022-08-03T03:28:21;10.75;;;9.75;;
35506;SDS011;36461;52.018;21.036;2022-08-03T03:30:49;10.30;;;9.28;;
35506;SDS011;36461;52.018;21.036;2022-08-03T03:33:17;10.28;;;9.28;;
35506;SDS011;36461;52.018;21.036;2022-08-03T03:38:11;10.45;;;9.00;;
35506;SDS011;36461;52.018;21.036;2022-08-03T03:40:38;10.53;;;9.53;;
35506;SDS011;36461;52.018;21.036;2022-08-03T03:43:07;10.35;;;9.23;;
35506;SDS011;36461;52.018;21.036;2022-08-03T03:45:36;10.72;;;9.73;;
35506;SDS011;36461;52.018;21.036;2022-08-03T03:48:07;9.45;;;8.65;;
35506;SDS011;36461;52.018;21.036;2022-08-03T03:50:36;9.50;;;8.60;;
35506;SDS011;36461;52.018;21.036;2022-08-03T03:53:07;10.18;;;9.15;;
35506;SDS011;36461;52.018;21.036;2022-08-03T03:55:37;10.45;;;9.35;;
35506;SDS011;36461;52.018;21.036;2022-08-03T03:58:04;10.00;;;8.98;;
35506;SDS011;36461;52.018;21.036;2022-08-03T04:00:32;10.48;;;8.80;;
35506;SDS011;36461;52.018;21.036;2022-08-03T04:02:59;10.25;;;9.20;;
35506;SDS011;36461;52.018;21.036;2022-08-03T04:08:13;9.50;;;8.60;;
35506;SDS011;36461;52.018;21.036;2022-08-03T04:11:07;10.28;;;8.40;;
35506;SDS011;36461;52.018;21.036;2022-08-03T04:13:48;10.40;;;9.03;;
35506;SDS011;36461;52.018;21.036;2022-08-03T04:16:17;9.00;;;8.15;;
35506;SDS011;36461;52.018;21.036;2022-08-03T04:18:49;9.70;;;8.65;;
35506;SDS011;36461;52.018;21.036;2022-08-03T04:21:22;8.98;;;8.18;;
35506;SDS011;36461;52.018;21.036;2022-08-03T04:23:51;10.15;;;8.88;;
35506;SDS011;36461;52.018;21.036;2022-08-03T04:26:21;11.78;;;8.23;;
35506;SDS011;36461;52.018;21.036;2022-08-03T04:28:51;9.18;;;8.38;;
35506;SDS011;36461;52.018;21.036;2022-08-03T04:31:21;9.70;;;8.15;;
35506;SDS011;36461;52.018;21.036;2022-08-03T04:33:49;9.75;;;8.75;;
35506;SDS011;36461;52.018;21.036;2022-08-03T04:36:21;9.30;;;8.05;;
35506;SDS011;36461;52.018;21.036;2022-08-03T04:38:52;8.50;;;7.80;;
35506;SDS011;36461;52.018;21.036;2022-08-03T04:41:22;9.25;;;8.33;;
35506;SDS011;36461;52.018;21.036;2022-08-03T04:43:52;8.48;;;7.67;;
35506;SDS011;36461;52.018;21.036;2022-08-03T04:46:22;8.98;;;8.10;;
35506;SDS011;36461;52.018;21.036;2022-08-03T04:48:55;10.43;;;8.43;;
35506;SDS011;36461;52.018;21.036;2022-08-03T04:51:22;9.10;;;8.00;;
35506;SDS011;36461;52.018;21.036;2022-08-03T04:53:50;9.48;;;8.50;;
35506;SDS011;36461;52.018;21.036;2022-08-03T04:56:17;11.97;;;9.23;;
35506;SDS011;36461;52.018;21.036;2022-08-03T04:58:43;12.88;;;10.43;;
35506;SDS011;36461;52.018;21.036;2022-08-03T05:01:11;12.37;;;10.70;;
35506;SDS011;36461;52.018;21.036;2022-08-03T05:03:37;12.25;;;10.08;;
35506;SDS011;36461;52.018;21.036;2022-08-03T05:06:04;13.83;;;9.75;;
35506;SDS011;36461;52.018;21.036;2022-08-03T05:08:31;10.48;;;9.38;;
35506;SDS011;36461;52.018;21.036;2022-08-03T05:10:57;11.33;;;9.43;;
35506;SDS011;36461;52.018;21.036;2022-08-03T05:13:23;10.45;;;9.35;;
35506;SDS011;36461;52.018;21.036;2022-08-03T05:15:51;9.28;;;8.43;;
35506;SDS011;36461;52.018;21.036;2022-08-03T05:18:17;10.38;;;8.70;;
35506;SDS011;36461;52.018;21.036;2022-08-03T05:25:37;9.08;;;8.18;;
35506;SDS011;36461;52.018;21.036;2022-08-03T05:28:05;10.72;;;9.65;;
35506;SDS011;36461;52.018;21.036;2022-08-03T05:30:31;12.65;;;9.20;;
35506;SDS011;36461;52.018;21.036;2022-08-03T05:32:58;10.53;;;9.53;;
35506;SDS011;36461;52.018;21.036;2022-08-03T05:35:25;10.05;;;9.15;;
35506;SDS011;36461;52.018;21.036;2022-08-03T05:37:53;10.40;;;9.40;;
35506;SDS011;36461;52.018;21.036;2022-08-03T05:40:19;12.70;;;10.50;;
35506;SDS011;36461;52.018;21.036;2022-08-03T05:42:46;12.70;;;10.08;;
35506;SDS011;36461;52.018;21.036;2022-08-03T05:45:12;10.72;;;9.58;;
35506;SDS011;36461;52.018;21.036;2022-08-03T05:47:42;10.78;;;9.75;;
35506;SDS011;36461;52.018;21.036;2022-08-03T05:50:10;12.40;;;10.82;;
35506;SDS011;36461;52.018;21.036;2022-08-03T05:52:38;14.65;;;10.78;;
35506;SDS011;36461;52.018;21.036;2022-08-03T05:55:06;13.62;;;10.30;;
35506;SDS011;36461;52.018;21.036;2022-08-03T05:57:34;11.75;;;10.00;;
35506;SDS011;36461;52.018;21.036;2022-08-03T06:00:03;11.48;;;10.28;;
35506;SDS011;36461;52.018;21.036;2022-08-03T06:02:34;11.35;;;10.23;;
35506;SDS011;36461;52.018;21.036;2022-08-03T06:05:02;14.63;;;11.43;;
35506;SDS011;36461;52.018;21.036;2022-08-03T06:07:30;14.18;;;11.15;;
35506;SDS011;36461;52.018;21.036;2022-08-03T06:09:56;15.58;;;11.25;;
35506;SDS011;36461;52.018;21.036;2022-08-03T06:12:23;14.18;;;10.63;;
35506;SDS011;36461;52.018;21.036;2022-08-03T06:14:50;13.10;;;11.80;;
35506;SDS011;36461;52.018;21.036;2022-08-03T06:17:16;15.28;;;13.80;;
35506;SDS011;36461;52.018;21.036;2022-08-03T06:19:43;17.30;;;15.65;;
35506;SDS011;36461;52.018;21.036;2022-08-03T06:22:09;14.53;;;13.22;;
35506;SDS011;36461;52.018;21.036;2022-08-03T06:24:36;15.30;;;13.75;;
35506;SDS011;36461;52.018;21.036;2022-08-03T06:29:29;15.68;;;14.18;;
35506;SDS011;36461;52.018;21.036;2022-08-03T06:31:56;17.52;;;15.93;;
35506;SDS011;36461;52.018;21.036;2022-08-03T06:34:22;19.65;;;17.67;;
35506;SDS011;36461;52.018;21.036;2022-08-03T06:36:48;16.17;;;14.68;;
35506;SDS011;36461;52.018;21.036;2022-08-03T06:39:15;14.55;;;13.22;;
35506;SDS011;36461;52.018;21.036;2022-08-03T06:41:43;16.37;;;14.98;;
35506;SDS011;36461;52.018;21.036;2022-08-03T06:44:10;13.75;;;12.45;;
35506;SDS011;36461;52.018;21.036;2022-08-03T06:46:37;16.60;;;15.00;;
35506;SDS011;36461;52.018;21.036;2022-08-03T06:49:05;15.75;;;14.35;;
35506;SDS011;36461;52.018;21.036;2022-08-03T06:51:32;15.93;;;14.40;;
35506;SDS011;36461;52.018;21.036;2022-08-03T06:56:24;13.95;;;12.55;;
35506;SDS011;36461;52.018;21.036;2022-08-03T06:58:51;14.28;;;12.98;;
35506;SDS011;36461;52.018;21.036;2022-08-03T07:08:36;12.03;;;10.82;;
35506;SDS011;36461;52.018;21.036;2022-08-03T07:11:02;12.25;;;11.08;;
35506;SDS011;36461;52.018;21.036;2022-08-03T07:13:29;12.55;;;11.38;;
35506;SDS011;36461;52.018;21.036;2022-08-03T07:15:55;12.85;;;11.65;;
35506;SDS011;36461;52.018;21.036;2022-08-03T07:18:22;13.58;;;12.07;;
35506;SDS011;36461;52.018;21.036;2022-08-03T07:20:49;11.95;;;10.95;;
35506;SDS011;36461;52.018;21.036;2022-08-03T07:25:41;10.95;;;9.75;;
35506;SDS011;36461;52.018;21.036;2022-08-03T07:30:34;10.70;;;9.58;;
35506;SDS011;36461;52.018;21.036;2022-08-03T07:33:00;10.70;;;9.23;;
35506;SDS011;36461;52.018;21.036;2022-08-03T07:37:53;10.10;;;8.55;;
35506;SDS011;36461;52.018;21.036;2022-08-03T07:40:20;10.65;;;8.98;;
35506;SDS011;36461;52.018;21.036;2022-08-03T07:42:47;9.55;;;8.65;;
35506;SDS011;36461;52.018;21.036;2022-08-03T07:47:39;8.25;;;7.47;;
35506;SDS011;36461;52.018;21.036;2022-08-03T07:50:06;8.95;;;8.15;;
35506;SDS011;36461;52.018;21.036;2022-08-03T07:52:34;9.00;;;8.20;;
35506;SDS011;36461;52.018;21.036;2022-08-03T07:55:18;8.73;;;7.97;;
35506;SDS011;36461;52.018;21.036;2022-08-03T07:57:52;9.13;;;8.25;;
35506;SDS011;36461;52.018;21.036;2022-08-03T08:00:31;8.70;;;7.80;;
35506;SDS011;36461;52.018;21.036;2022-08-03T08:02:58;7.92;;;7.22;;
35506;SDS011;36461;52.018;21.036;2022-08-03T08:05:25;7.60;;;6.80;;
35506;SDS011;36461;52.018;21.036;2022-08-03T08:07:52;8.93;;;8.13;;
35506;SDS011;36461;52.018;21.036;2022-08-03T08:10:19;8.18;;;7.33;;
35506;SDS011;36461;52.018;21.036;2022-08-03T08:12:47;6.83;;;6.22;;
35506;SDS011;36461;52.018;21.036;2022-08-03T08:15:14;7.08;;;6.50;;
35506;SDS011;36461;52.018;21.036;2022-08-03T08:17:46;7.65;;;6.62;;
35506;SDS011;36461;52.018;21.036;2022-08-03T08:20:14;6.90;;;6.30;;
35506;SDS011;36461;52.018;21.036;2022-08-03T08:22:45;7.62;;;6.70;;
35506;SDS011;36461;52.018;21.036;2022-08-03T08:25:12;8.40;;;7.37;;
35506;SDS011;36461;52.018;21.036;2022-08-03T08:30:10;9.25;;;7.35;;
35506;SDS011;36461;52.018;21.036;2022-08-03T08:32:38;7.05;;;6.35;;
35506;SDS011;36461;52.018;21.036;2022-08-03T08:35:05;6.70;;;6.08;;
35506;SDS011;36461;52.018;21.036;2022-08-03T08:37:34;6.75;;;6.00;;
35506;SDS011;36461;52.018;21.036;2022-08-03T08:40:01;6.12;;;5.37;;
35506;SDS011;36461;52.018;21.036;2022-08-03T08:42:29;7.85;;;5.47;;
35506;SDS011;36461;52.018;21.036;2022-08-03T08:44:57;6.17;;;5.50;;
35506;SDS011;36461;52.018;21.036;2022-08-03T08:47:28;6.67;;;5.28;;
35506;SDS011;36461;52.018;21.036;2022-08-03T08:49:56;7.28;;;5.30;;
35506;SDS011;36461;52.018;21.036;2022-08-03T08:52:25;6.03;;;5.53;;
35506;SDS011;36461;52.018;21.036;2022-08-03T08:54:57;5.42;;;4.92;;
35506;SDS011;36461;52.018;21.036;2022-08-03T08:57:29;6.05;;;5.60;;
35506;SDS011;36461;52.018;21.036;2022-08-03T09:00:00;5.97;;;5.47;;
35506;SDS011;36461;52.018;21.036;2022-08-03T09:02:29;5.90;;;5.15;;
35506;SDS011;36461;52.018;21.036;2022-08-03T09:04:58;6.87;;;5.83;;
35506;SDS011;36461;52.018;21.036;2022-08-03T09:07:25;6.08;;;5.58;;
35506;SDS011;36461;52.018;21.036;2022-08-03T09:09:54;7.53;;;6.83;;
35506;SDS011;36461;52.018;21.036;2022-08-03T09:12:21;6.83;;;6.20;;
35506;SDS011;36461;52.018;21.036;2022-08-03T09:14:47;6.40;;;5.75;;
35506;SDS011;36461;52.018;21.036;2022-08-03T09:17:14;6.30;;;5.70;;
35506;SDS011;36461;52.018;21.036;2022-08-03T09:19:41;5.85;;;5.30;;
35506;SDS011;36461;52.018;21.036;2022-08-03T09:22:09;6.30;;;5.70;;
35506;SDS011;36461;52.018;21.036;2022-08-03T09:24:54;6.62;;;5.95;;
35506;SDS011;36461;52.018;21.036;2022-08-03T09:27:25;6.42;;;5.83;;
35506;SDS011;36461;52.018;21.036;2022-08-03T09:29:52;6.12;;;5.53;;
35506;SDS011;36461;52.018;21.036;2022-08-03T09:32:20;8.65;;;6.17;;
35506;SDS011;36461;52.018;21.036;2022-08-03T09:34:50;6.70;;;5.97;;
35506;SDS011;36461;52.018;21.036;2022-08-03T09:37:18;7.08;;;6.37;;
35506;SDS011;36461;52.018;21.036;2022-08-03T09:39:47;8.00;;;5.87;;
35506;SDS011;36461;52.018;21.036;2022-08-03T09:42:18;6.62;;;5.97;;
35506;SDS011;36461;52.018;21.036;2022-08-03T09:44:45;6.22;;;5.62;;
35506;SDS011;36461;52.018;21.036;2022-08-03T09:47:14;6.45;;;5.85;;
35506;SDS011;36461;52.018;21.036;2022-08-03T09:50:01;6.28;;;5.67;;
35506;SDS011;36461;52.018;21.036;2022-08-03T09:52:30;6.80;;;6.17;;
35506;SDS011;36461;52.018;21.036;2022-08-03T09:55:10;7.78;;;7.08;;
35506;SDS011;36461;52.018;21.036;2022-08-03T09:57:39;7.70;;;6.20;;
35506;SDS011;36461;52.018;21.036;2022-08-03T10:00:12;6.58;;;6.03;;
35506;SDS011;36461;52.018;21.036;2022-08-03T10:02:41;6.33;;;5.83;;
35506;SDS011;36461;52.018;21.036;2022-08-03T10:05:09;6.80;;;6.20;;
35506;SDS011;36461;52.018;21.036;2022-08-03T10:07:44;7.30;;;5.87;;
35506;SDS011;36461;52.018;21.036;2022-08-03T10:10:14;6.78;;;6.17;;
35506;SDS011;36461;52.018;21.036;2022-08-03T10:12:42;8.15;;;6.92;;
35506;SDS011;36461;52.018;21.036;2022-08-03T10:15:12;8.80;;;6.30;;
35506;SDS011;36461;52.018;21.036;2022-08-03T10:17:39;8.25;;;7.03;;
35506;SDS011;36461;52.018;21.036;2022-08-03T10:20:07;6.62;;;6.00;;
35506;SDS011;36461;52.018;21.036;2022-08-03T10:22:35;7.22;;;5.83;;
35506;SDS011;36461;52.018;21.036;2022-08-03T10:25:13;5.55;;;5.15;;
35506;SDS011;36461;52.018;21.036;2022-08-03T10:27:43;7.25;;;5.28;;
35506;SDS011;36461;52.018;21.036;2022-08-03T10:30:12;6.03;;;5.42;;
35506;SDS011;36461;52.018;21.036;2022-08-03T10:32:40;7.03;;;4.95;;
35506;SDS011;36461;52.018;21.036;2022-08-03T10:35:12;5.50;;;5.00;;
35506;SDS011;36461;52.018;21.036;2022-08-03T10:37:51;6.87;;;5.28;;
35506;SDS011;36461;52.018;21.036;2022-08-03T10:40:26;6.53;;;5.37;;
35506;SDS011;36461;52.018;21.036;2022-08-03T10:42:57;5.60;;;5.08;;
35506;SDS011;36461;52.018;21.036;2022-08-03T10:45:35;6.78;;;4.80;;
35506;SDS011;36461;52.018;21.036;2022-08-03T10:48:07;6.10;;;4.78;;
35506;SDS011;36461;52.018;21.036;2022-08-03T10:50:36;5.72;;;5.12;;
35506;SDS011;36461;52.018;21.036;2022-08-03T10:53:04;5.37;;;4.83;;
35506;SDS011;36461;52.018;21.036;2022-08-03T11:01:18;5.75;;;5.25;;
35506;SDS011;36461;52.018;21.036;2022-08-03T11:06:46;7.10;;;5.87;;
35506;SDS011;36461;52.018;21.036;2022-08-03T11:09:14;5.47;;;4.97;;
35506;SDS011;36461;52.018;21.036;2022-08-03T11:11:46;5.22;;;4.80;;
35506;SDS011;36461;52.018;21.036;2022-08-03T11:14:17;6.65;;;5.65;;
35506;SDS011;36461;52.018;21.036;2022-08-03T11:16:47;6.62;;;6.03;;
35506;SDS011;36461;52.018;21.036;2022-08-03T11:19:18;6.47;;;5.83;;
35506;SDS011;36461;52.018;21.036;2022-08-03T11:27:27;6.83;;;6.12;;
35506;SDS011;36461;52.018;21.036;2022-08-03T11:30:07;6.70;;;5.90;;
35506;SDS011;36461;52.018;21.036;2022-08-03T11:35:18;6.03;;;5.45;;
35506;SDS011;36461;52.018;21.036;2022-08-03T11:40:32;7.20;;;5.60;;
35506;SDS011;36461;52.018;21.036;2022-08-03T11:46:03;6.17;;;5.58;;
35506;SDS011;36461;52.018;21.036;2022-08-03T11:48:36;8.70;;;5.62;;
35506;SDS011;36461;52.018;21.036;2022-08-03T11:51:25;7.97;;;5.83;;
35506;SDS011;36461;52.018;21.036;2022-08-03T11:53:57;5.85;;;5.35;;
35506;SDS011;36461;52.018;21.036;2022-08-03T11:56:27;7.72;;;5.50;;
35506;SDS011;36461;52.018;21.036;2022-08-03T11:59:15;6.62;;;6.03;;
35506;SDS011;36461;52.018;21.036;2022-08-03T12:01:43;6.20;;;5.60;;
35506;SDS011;36461;52.018;21.036;2022-08-03T12:04:11;6.62;;;6.03;;
35506;SDS011;36461;52.018;21.036;2022-08-03T12:06:38;6.35;;;5.83;;
35506;SDS011;36461;52.018;21.036;2022-08-03T12:09:20;5.97;;;5.33;;
35506;SDS011;36461;52.018;21.036;2022-08-03T12:11:47;6.58;;;6.00;;
35506;SDS011;36461;52.018;21.036;2022-08-03T12:14:15;6.12;;;5.62;;
35506;SDS011;36461;52.018;21.036;2022-08-03T12:16:46;7.62;;;5.60;;
35506;SDS011;36461;52.018;21.036;2022-08-03T12:19:14;11.20;;;6.33;;
35506;SDS011;36461;52.018;21.036;2022-08-03T12:21:47;6.37;;;5.78;;
35506;SDS011;36461;52.018;21.036;2022-08-03T12:24:15;7.65;;;6.95;;
35506;SDS011;36461;52.018;21.036;2022-08-03T12:26:43;7.80;;;6.28;;
35506;SDS011;36461;52.018;21.036;2022-08-03T12:29:19;7.17;;;6.58;;
35506;SDS011;36461;52.018;21.036;2022-08-03T12:31:47;7.17;;;6.45;;
35506;SDS011;36461;52.018;21.036;2022-08-03T12:34:14;7.55;;;6.00;;
35506;SDS011;36461;52.018;21.036;2022-08-03T12:36:51;7.00;;;6.30;;
35506;SDS011;36461;52.018;21.036;2022-08-03T12:39:24;7.30;;;6.60;;
35506;SDS011;36461;52.018;21.036;2022-08-03T12:41:54;6.72;;;6.12;;
35506;SDS011;36461;52.018;21.036;2022-08-03T12:44:30;6.72;;;6.12;;
35506;SDS011;36461;52.018;21.036;2022-08-03T12:46:59;7.15;;;6.20;;
35506;SDS011;36461;52.018;21.036;2022-08-03T12:49:27;7.03;;;5.97;;
35506;SDS011;36461;52.018;21.036;2022-08-03T12:51:55;6.97;;;6.35;;
35506;SDS011;36461;52.018;21.036;2022-08-03T12:54:25;8.08;;;6.83;;
35506;SDS011;36461;52.018;21.036;2022-08-03T12:56:56;7.28;;;6.47;;
35506;SDS011;36461;52.018;21.036;2022-08-03T12:59:39;6.58;;;5.97;;
35506;SDS011;36461;52.018;21.036;2022-08-03T13:02:14;7.37;;;6.00;;
35506;SDS011;36461;52.018;21.036;2022-08-03T13:04:44;8.43;;;6.75;;
35506;SDS011;36461;52.018;21.036;2022-08-03T13:07:13;6.20;;;5.60;;
35506;SDS011;36461;52.018;21.036;2022-08-03T13:12:15;6.33;;;5.72;;
35506;SDS011;36461;52.018;21.036;2022-08-03T13:14:45;8.08;;;6.20;;
35506;SDS011;36461;52.018;21.036;2022-08-03T13:17:14;6.17;;;5.58;;
35506;SDS011;36461;52.018;21.036;2022-08-03T13:19:41;6.40;;;5.90;;
35506;SDS011;36461;52.018;21.036;2022-08-03T13:22:12;6.50;;;5.90;;
35506;SDS011;36461;52.018;21.036;2022-08-03T13:24:44;6.12;;;5.55;;
35506;SDS011;36461;52.018;21.036;2022-08-03T13:27:13;6.33;;;5.53;;
35506;SDS011;36461;52.018;21.036;2022-08-03T13:29:40;9.68;;;5.87;;
35506;SDS011;36461;52.018;21.036;2022-08-03T13:32:08;7.75;;;5.90;;
35506;SDS011;36461;52.018;21.036;2022-08-03T13:34:36;7.75;;;6.00;;
35506;SDS011;36461;52.018;21.036;2022-08-03T13:37:03;8.08;;;5.95;;
35506;SDS011;36461;52.018;21.036;2022-08-03T13:39:30;7.37;;;5.45;;
35506;SDS011;36461;52.018;21.036;2022-08-03T13:41:57;6.72;;;5.20;;
35506;SDS011;36461;52.018;21.036;2022-08-03T13:44:23;6.65;;;5.78;;
35506;SDS011;36461;52.018;21.036;2022-08-03T13:46:50;7.45;;;5.37;;
35506;SDS011;36461;52.018;21.036;2022-08-03T13:49:17;8.13;;;5.85;;
35506;SDS011;36461;52.018;21.036;2022-08-03T13:51:44;6.12;;;5.62;;
35506;SDS011;36461;52.018;21.036;2022-08-03T13:56:38;7.35;;;5.65;;
35506;SDS011;36461;52.018;21.036;2022-08-03T13:59:05;7.42;;;6.00;;
35506;SDS011;36461;52.018;21.036;2022-08-03T14:01:31;6.20;;;5.60;;
35506;SDS011;36461;52.018;21.036;2022-08-03T14:03:57;6.22;;;5.70;;
35506;SDS011;36461;52.018;21.036;2022-08-03T14:06:24;5.95;;;5.42;;
35506;SDS011;36461;52.018;21.036;2022-08-03T14:08:50;6.85;;;6.00;;
35506;SDS011;36461;52.018;21.036;2022-08-03T14:11:17;5.92;;;5.30;;
35506;SDS011;36461;52.018;21.036;2022-08-03T14:13:43;6.03;;;5.53;;
35506;SDS011;36461;52.018;21.036;2022-08-03T14:16:10;6.08;;;5.40;;
35506;SDS011;36461;52.018;21.036;2022-08-03T14:18:36;6.17;;;5.58;;
35506;SDS011;36461;52.018;21.036;2022-08-03T14:21:04;5.92;;;5.42;;
35506;SDS011;36461;52.018;21.036;2022-08-03T14:23:31;5.75;;;5.25;;
35506;SDS011;36461;52.018;21.036;2022-08-03T14:25:59;5.33;;;4.92;;
35506;SDS011;36461;52.018;21.036;2022-08-03T14:28:25;5.17;;;4.78;;
35506;SDS011;36461;52.018;21.036;2022-08-03T14:30:53;5.70;;;4.80;;
35506;SDS011;36461;52.018;21.036;2022-08-03T14:33:21;7.80;;;5.30;;
35506;SDS011;36461;52.018;21.036;2022-08-03T14:35:48;5.58;;;4.95;;
35506;SDS011;36461;52.018;21.036;2022-08-03T14:38:16;5.33;;;4.72;;
35506;SDS011;36461;52.018;21.036;2022-08-03T14:40:43;5.45;;;4.95;;
35506;SDS011;36461;52.018;21.036;2022-08-03T14:43:10;5.60;;;4.97;;
35506;SDS011;36461;52.018;21.036;2022-08-03T14:45:38;5.80;;;5.30;;
35506;SDS011;36461;52.018;21.036;2022-08-03T14:48:05;5.60;;;5.10;;
35506;SDS011;36461;52.018;21.036;2022-08-03T14:50:32;8.53;;;5.60;;
35506;SDS011;36461;52.018;21.036;2022-08-03T14:52:59;6.05;;;5.50;;
35506;SDS011;36461;52.018;21.036;2022-08-03T14:55:25;6.45;;;5.40;;
35506;SDS011;36461;52.018;21.036;2022-08-03T14:57:52;5.78;;;5.20;;
35506;SDS011;36461;52.018;21.036;2022-08-03T15:00:18;5.62;;;5.10;;
35506;SDS011;36461;52.018;21.036;2022-08-03T15:02:45;5.87;;;5.37;;
35506;SDS011;36461;52.018;21.036;2022-08-03T15:05:12;6.00;;;5.40;;
35506;SDS011;36461;52.018;21.036;2022-08-03T15:07:39;5.80;;;5.30;;
35506;SDS011;36461;52.018;21.036;2022-08-03T15:10:06;6.15;;;5.55;;
35506;SDS011;36461;52.018;21.036;2022-08-03T15:12:33;5.85;;;5.35;;
35506;SDS011;36461;52.018;21.036;2022-08-03T15:15:00;5.72;;;5.20;;
35506;SDS011;36461;52.018;21.036;2022-08-03T15:17:26;5.83;;;5.33;;
35506;SDS011;36461;52.018;21.036;2022-08-03T15:19:53;5.62;;;5.12;;
35506;SDS011;36461;52.018;21.036;2022-08-03T15:22:19;5.85;;;5.35;;
35506;SDS011;36461;52.018;21.036;2022-08-03T15:24:46;7.20;;;5.83;;
35506;SDS011;36461;52.018;21.036;2022-08-03T15:29:39;5.40;;;4.90;;
35506;SDS011;36461;52.018;21.036;2022-08-03T15:32:05;6.20;;;5.03;;
35506;SDS011;36461;52.018;21.036;2022-08-03T15:34:32;6.10;;;5.50;;
35506;SDS011;36461;52.018;21.036;2022-08-03T15:36:58;5.97;;;5.47;;
35506;SDS011;36461;52.018;21.036;2022-08-03T15:39:25;9.00;;;5.50;;
35506;SDS011;36461;52.018;21.036;2022-08-03T15:41:51;6.20;;;4.80;;
35506;SDS011;36461;52.018;21.036;2022-08-03T15:44:18;5.80;;;5.30;;
35506;SDS011;36461;52.018;21.036;2022-08-03T15:46:45;6.35;;;5.70;;
35506;SDS011;36461;52.018;21.036;2022-08-03T15:49:12;5.25;;;4.85;;
35506;SDS011;36461;52.018;21.036;2022-08-03T15:51:39;5.65;;;5.15;;
35506;SDS011;36461;52.018;21.036;2022-08-03T15:56:32;5.15;;;4.65;;
35506;SDS011;36461;52.018;21.036;2022-08-03T16:01:25;5.20;;;4.80;;
35506;SDS011;36461;52.018;21.036;2022-08-03T16:03:53;5.67;;;5.17;;
35506;SDS011;36461;52.018;21.036;2022-08-03T16:06:20;7.00;;;5.40;;
35506;SDS011;36461;52.018;21.036;2022-08-03T16:08:46;5.55;;;5.03;;